Time;durP1;ratioP1;P1;durP2;ratioP2;P2;SDS_P1;SDS_P2;PMS_P1;PMS_P2;Temp;Humidity;BMP_temperature;BMP_pressure;BME280_temperature;BME280_humidity;BME280_pressure;Samples;Min_cycle;Max_cycle;Signal;HPM_P1;HPM_P2
2023/01/23 00:04:31;;;;;;;7.00;4.70;;;;;;;20.27;47.74;98065.75;10587285;28;20403;-53
2023/01/23 00:09:50;;;;;;;5.32;4.60;;;;;;;20.26;47.46;98072.25;10587098;28;20051;-53
2023/01/23 00:15:11;;;;;;;6.13;4.32;;;;;;;20.24;47.54;98072.53;10586833;28;20047;-55
2023/01/23 00:20:31;;;;;;;6.03;4.55;;;;;;;20.22;47.55;98074.72;10586813;28;20097;-54
2023/01/23 00:25:50;;;;;;;4.97;4.45;;;;;;;20.22;47.75;98079.34;10585962;28;20108;-54
2023/01/23 00:31:12;;;;;;;6.20;5.00;;;;;;;20.20;47.73;98084.25;10599995;28;20453;-55
2023/01/23 00:36:34;;;;;;;4.97;4.47;;;;;;;20.18;47.74;98087.25;10599772;28;20093;-55
2023/01/23 00:41:54;;;;;;;4.90;4.40;;;;;;;20.15;47.72;98090.56;10599708;28;20478;-55
2023/01/23 00:47:13;;;;;;;6.05;4.63;;;;;;;20.12;47.65;98101.97;10585182;28;20051;-55
2023/01/23 00:52:32;;;;;;;5.00;4.28;;;;;;;20.11;47.77;98108.47;10584988;28;20051;-55
2023/01/23 00:57:52;;;;;;;5.13;4.60;;;;;;;20.11;47.81;98113.88;10585404;28;20101;-55
2023/01/23 01:03:12;;;;;;;5.18;4.30;;;;;;;20.08;47.74;98095.53;10569118;28;20911;-54
2023/01/23 01:08:31;;;;;;;5.90;4.50;;;;;;;20.06;47.80;98090.44;10598504;28;20169;-54
2023/01/23 01:13:51;;;;;;;4.50;4.05;;;;;;;20.05;47.78;98085.31;10584602;28;20047;-54
2023/01/23 01:19:12;;;;;;;4.75;4.20;;;;;;;20.03;47.67;98093.75;10583882;28;20491;-54
2023/01/23 01:24:31;;;;;;;5.70;4.53;;;;;;;20.01;47.66;98084.28;10584259;28;20047;-55
2023/01/23 01:29:51;;;;;;;4.70;4.20;;;;;;;20.00;47.83;98080.00;10568557;28;20062;-55
2023/01/23 01:35:12;;;;;;;4.78;4.18;;;;;;;19.97;47.75;98075.16;10583832;28;20043;-54
2023/01/23 01:40:33;;;;;;;4.53;3.80;;;;;;;19.95;47.77;98089.81;10583612;28;20052;-55
2023/01/23 01:45:59;;;;;;;4.45;3.88;;;;;;;19.94;47.72;98084.69;10583033;28;20051;-54
2023/01/23 01:51:26;;;;;;;4.63;3.95;;;;;;;19.92;47.71;98087.69;10583245;28;20056;-55
2023/01/23 01:57:03;;;;;;;4.10;3.70;;;;;;;19.89;47.60;98096.38;10567679;28;20047;-54
2023/01/23 02:02:26;;;;;;;4.28;3.88;;;;;;;19.88;47.79;98096.69;10567497;28;20058;-55
2023/01/23 02:07:53;;;;;;;4.20;3.80;;;;;;;19.86;47.64;98096.97;10566736;28;20495;-55
2023/01/23 02:13:21;;;;;;;4.68;4.18;;;;;;;19.84;47.41;98096.47;10582366;28;20047;-54
2023/01/23 02:18:46;;;;;;;4.10;3.70;;;;;;;19.82;47.51;98101.38;10566630;28;20051;-55
2023/01/23 02:24:12;;;;;;;4.15;3.67;;;;;;;19.81;47.39;98113.25;10581882;28;20048;-55
2023/01/23 02:29:41;;;;;;;4.40;3.60;;;;;;;19.78;47.32;98124.69;10566491;28;20058;-55
2023/01/23 02:35:09;;;;;;;4.38;3.97;;;;;;;19.78;47.43;98131.97;10566260;28;20399;-54
2023/01/23 02:40:38;;;;;;;4.25;3.80;;;;;;;19.76;47.38;98137.69;10566204;28;20088;-54
2023/01/23 02:46:02;;;;;;;3.83;3.47;;;;;;;19.73;47.44;98133.66;10565593;28;20052;-54
2023/01/23 02:51:21;;;;;;;4.43;3.72;;;;;;;19.72;47.43;98140.19;10581153;28;20056;-55
2023/01/23 02:56:41;;;;;;;4.07;3.65;;;;;;;19.70;47.25;98144.25;10565734;28;20055;-54
2023/01/23 03:02:01;;;;;;;4.00;3.60;;;;;;;19.68;47.41;98141.00;10581006;28;20048;-54
2023/01/23 03:07:21;;;;;;;5.75;3.50;;;;;;;19.67;47.42;98137.50;10564849;28;20054;-54
2023/01/23 03:12:42;;;;;;;4.22;3.70;;;;;;;19.65;47.25;98145.09;10565496;28;20051;-55
2023/01/23 03:18:01;;;;;;;4.32;3.60;;;;;;;19.63;47.32;98138.38;10586014;28;20051;-54
2023/01/23 03:23:21;;;;;;;4.55;3.42;;;;;;;19.61;47.19;98125.16;10573646;28;20100;-55
2023/01/23 03:34:20;;;;;;;4.53;3.67;;;;;;;19.57;47.16;98118.72;10572748;28;20052;-54
2023/01/23 03:45:19;;;;;;;;;;;;;;;19.53;47.04;98134.72;10587702;28;20056;-55
2023/01/23 03:50:38;;;;;;;3.78;3.10;;;;;;;19.52;47.09;98148.53;10587940;28;19999;-54
2023/01/23 03:55:57;;;;;;;3.67;3.20;;;;;;;19.50;47.08;98151.53;10587143;28;20077;-55
2023/01/23 04:01:18;;;;;;;3.50;3.10;;;;;;;19.49;47.15;98144.50;10585656;28;20036;-55
2023/01/23 04:06:39;;;;;;;3.60;3.28;;;;;;;19.47;47.00;98146.72;10572061;28;20044;-54
2023/01/23 04:11:59;;;;;;;3.90;3.50;;;;;;;19.45;47.13;98146.19;10571768;28;20051;-54
2023/01/23 04:17:20;;;;;;;3.92;3.33;;;;;;;19.43;47.12;98134.88;10571545;28;20437;-54
2023/01/23 04:22:39;;;;;;;3.80;3.38;;;;;;;19.42;47.06;98132.44;10584830;28;20380;-54
2023/01/23 04:27:59;;;;;;;3.22;2.92;;;;;;;19.41;47.07;98134.34;10585725;28;20116;-55
2023/01/23 04:33:19;;;;;;;3.67;3.38;;;;;;;19.38;46.98;98137.63;10570354;28;20052;-54
2023/01/23 04:38:39;;;;;;;3.50;3.00;;;;;;;19.36;46.99;98129.00;10570751;28;20056;-55
2023/01/23 04:44:21;;;;;;;3.88;3.47;;;;;;;19.33;47.03;98119.59;10558239;28;20097;-54
2023/01/23 04:50:06;;;;;;;3.45;3.15;;;;;;;19.32;46.99;98128.00;10570340;28;20081;-54
2023/01/23 04:55:27;;;;;;;4.78;3.38;;;;;;;19.31;47.18;98129.09;10569318;28;20054;-55
2023/01/23 05:00:49;;;;;;;3.70;3.35;;;;;;;19.29;46.95;98121.28;10583409;28;20050;-54
2023/01/23 05:06:12;;;;;;;3.35;3.05;;;;;;;19.28;46.97;98129.66;10568951;28;20492;-54
2023/01/23 05:11:32;;;;;;;3.50;3.20;;;;;;;19.26;47.03;98135.34;10569427;28;20051;-55
2023/01/23 05:16:52;;;;;;;3.30;3.00;;;;;;;19.24;46.97;98147.53;10569172;28;20043;-54
2023/01/23 05:22:21;;;;;;;2.88;2.60;;;;;;;19.22;46.94;98171.34;10568961;28;20403;-54
2023/01/23 05:27:40;;;;;;;3.42;3.13;;;;;;;19.22;46.85;98182.16;10583960;28;20399;-54
2023/01/23 05:33:00;;;;;;;3.38;3.08;;;;;;;19.19;47.01;98191.66;10568728;28;20414;-54
2023/01/23 05:38:20;;;;;;;3.00;2.70;;;;;;;19.17;47.03;98189.22;10581951;28;20047;-55
2023/01/23 05:43:40;;;;;;;3.22;2.92;;;;;;;19.17;47.03;98189.22;10568133;28;20756;-55
2023/01/23 05:49:19;;;;;;;3.40;3.10;;;;;;;19.20;46.16;98178.94;10567102;28;20063;-55
2023/01/23 05:54:39;;;;;;;4.18;3.78;;;;;;;19.19;46.20;98180.84;10567548;28;20047;-55
2023/01/23 05:59:59;;;;;;;4.75;3.70;;;;;;;19.19;46.28;98185.41;10582144;28;20052;-54
2023/01/23 06:05:34;;;;;;;4.13;3.75;;;;;;;19.20;46.19;98184.34;10596026;28;20453;-53
2023/01/23 06:10:58;;;;;;;4.30;3.90;;;;;;;19.21;46.37;98194.88;10566897;28;20051;-53
2023/01/23 06:16:18;;;;;;;4.13;3.67;;;;;;;19.22;46.55;98203.78;10566865;28;20048;-55
2023/01/23 06:21:38;;;;;;;4.10;3.65;;;;;;;19.24;46.36;98204.28;10566604;28;20062;-55
2023/01/23 06:26:59;;;;;;;4.57;3.63;;;;;;;19.25;46.54;98200.47;10566402;28;20047;-55
2023/01/23 06:32:18;;;;;;;4.20;3.60;;;;;;;19.25;46.54;98209.41;10566432;28;20054;-55
2023/01/23 06:37:38;;;;;;;3.78;3.33;;;;;;;19.30;46.62;98208.53;10565601;28;20048;-55
2023/01/23 06:42:59;;;;;;;4.57;4.05;;;;;;;19.32;46.93;98223.34;10566112;28;20056;-55
2023/01/23 06:48:19;;;;;;;3.53;3.22;;;;;;;19.33;46.81;98221.47;10583478;28;20055;-55
2023/01/23 06:53:40;;;;;;;3.55;3.25;;;;;;;19.36;47.04;98243.31;10564887;28;20051;-55
2023/01/23 06:59:00;;;;;;;3.95;3.42;;;;;;;19.39;47.05;98249.25;10565029;28;20047;-55
2023/01/23 07:04:24;;;;;;;5.35;3.55;;;;;;;19.42;47.27;98268.38;10564912;28;20048;-55
2023/01/23 07:09:44;;;;;;;3.60;3.13;;;;;;;19.45;47.19;98243.50;10565658;28;20060;-56
2023/01/23 07:15:11;;;;;;;4.25;3.40;;;;;;;19.48;47.16;98259.16;10565545;28;20077;-56
2023/01/23 07:20:33;;;;;;;3.75;3.13;;;;;;;19.51;47.20;98253.16;10564651;28;20056;-56
2023/01/23 07:25:59;;;;;;;3.83;3.42;;;;;;;19.55;47.20;98278.50;10565109;28;20411;-55
2023/01/23 07:31:18;;;;;;;3.47;3.00;;;;;;;19.59;47.23;98277.94;10580005;28;20514;-56
2023/01/23 07:36:38;;;;;;;4.82;3.30;;;;;;;19.62;47.27;98271.94;10580468;28;20191;-56
2023/01/23 07:41:57;;;;;;;4.40;3.13;;;;;;;19.67;47.47;98280.00;10580371;28;20081;-56
2023/01/23 07:47:20;;;;;;;3.75;3.30;;;;;;;19.69;47.22;98277.81;10564338;28;20064;-56
2023/01/23 07:52:40;;;;;;;3.75;3.20;;;;;;;19.73;47.04;98297.78;10579505;28;20126;-56
2023/01/23 07:57:59;;;;;;;7.00;3.72;;;;;;;19.76;46.96;98313.47;10580017;28;20043;-55
2023/01/23 08:03:19;;;;;;;13.40;9.38;;;;;;;19.64;36.69;98316.53;10583434;28;20104;-55
2023/01/23 08:08:39;;;;;;;8.35;4.78;;;;;;;19.52;40.79;98294.47;10587485;28;20055;-56
2023/01/23 08:13:59;;;;;;;7.75;5.25;;;;;;;19.64;43.74;98299.50;10587462;28;20051;-55
2023/01/23 08:19:19;;;;;;;10.63;5.45;;;;;;;19.74;43.49;98312.94;10600520;28;20039;-55
2023/01/23 08:24:38;;;;;;;12.02;5.90;;;;;;;19.79;43.50;98315.56;10586712;28;20080;-55
2023/01/23 08:29:58;;;;;;;10.93;5.40;;;;;;;19.86;43.63;98320.66;10600140;28;20444;-55
2023/01/23 08:35:17;;;;;;;8.38;5.30;;;;;;;19.91;43.81;98334.88;10586349;28;20046;-56
2023/01/23 08:40:37;;;;;;;8.95;5.32;;;;;;;19.96;43.86;98331.34;10586173;28;20051;-55
2023/01/23 08:45:58;;;;;;;7.45;5.40;;;;;;;20.01;44.03;98322.34;10585517;28;20059;-56
2023/01/23 08:51:17;;;;;;;10.82;5.50;;;;;;;20.05;44.23;98320.66;10585102;28;20495;-55
2023/01/23 08:56:40;;;;;;;10.27;5.22;;;;;;;20.08;44.18;98322.78;10599176;28;20376;-55
2023/01/23 09:01:59;;;;;;;8.27;5.35;;;;;;;20.13;44.36;98333.53;10584687;28;20056;-55
2023/01/23 09:07:18;;;;;;;8.85;5.22;;;;;;;20.17;44.42;98331.06;10598708;28;20043;-56
2023/01/23 09:12:41;;;;;;;7.22;4.88;;;;;;;20.20;44.55;98327.78;10584753;28;20056;-55
2023/01/23 09:18:00;;;;;;;7.43;5.00;;;;;;;20.25;44.54;98316.91;10598134;28;20055;-55
2023/01/23 09:23:20;;;;;;;7.30;5.13;;;;;;;20.27;44.60;98312.78;10584446;28;20052;-55
2023/01/23 09:28:41;;;;;;;10.30;4.90;;;;;;;20.32;44.79;98312.72;10584162;28;20043;-56
2023/01/23 09:34:02;;;;;;;6.32;4.97;;;;;;;20.35;44.58;98320.25;10583963;28;20089;-56
2023/01/23 09:39:22;;;;;;;8.25;5.40;;;;;;;20.40;44.48;98322.06;10583675;28;20059;-56
2023/01/23 09:44:44;;;;;;;7.97;5.07;;;;;;;20.42;44.11;98324.50;10583329;28;20055;-55
2023/01/23 09:50:07;;;;;;;7.63;5.35;;;;;;;20.43;43.98;98318.78;10582698;28;20491;-56
2023/01/23 09:56:06;;;;;;;6.10;4.43;;;;;;;20.48;44.39;98315.19;10583171;28;20052;-55
2023/01/23 10:01:25;;;;;;;;;;;;;;;20.51;44.20;98315.41;10583363;28;20055;-55
2023/01/23 10:07:03;;;;;;;9.07;6.53;;;;;;;20.50;38.98;98313.81;10567546;28;19923;-55
2023/01/23 10:12:43;;;;;;;8.40;7.25;;;;;;;20.50;38.98;98313.81;10567290;28;20055;-55
2023/01/23 10:18:16;;;;;;;10.15;6.20;;;;;;;19.90;39.42;98305.44;10567196;28;20088;-55
2023/01/23 10:24:08;;;;;;;6.20;5.07;;;;;;;-146.19;100.00;65364.44;10581966;28;20056;-55
2023/01/23 10:29:31;;;;;;;6.57;5.00;;;;;;;20.03;37.22;98293.91;10520946;28;20418;-55
2023/01/23 10:35:00;;;;;;;6.32;5.32;;;;;;;20.22;39.09;98296.63;10581869;28;20047;-55
2023/01/23 10:46:00;;;;;;;7.63;5.13;;;;;;;20.40;41.18;98296.91;10590299;28;20384;-54
2023/01/23 10:51:37;;;;;;;5.45;4.47;;;;;;;20.46;41.82;98293.81;10566016;28;20070;-55
2023/01/23 10:56:58;;;;;;;7.82;5.05;;;;;;;-146.19;100.00;65364.44;10595055;28;20051;-55
2023/01/23 11:02:29;;;;;;;5.63;4.60;;;;;;;-146.19;100.00;65364.44;10581308;28;20067;-55
2023/01/23 11:07:53;;;;;;;5.28;4.38;;;;;;;-146.19;100.00;65364.44;10594751;28;20429;-55
2023/01/23 11:13:27;;;;;;;6.03;4.18;;;;;;;-146.19;100.00;65364.44;10580439;28;20067;-55
2023/01/23 11:19:02;;;;;;;5.32;4.35;;;;;;;-146.19;100.00;65364.44;10580373;28;20048;-55
2023/01/23 11:24:33;;;;;;;5.45;4.15;;;;;;;-146.19;100.00;65364.44;10565605;28;20058;-55
2023/01/23 11:30:02;;;;;;;4.15;3.75;;;;;;;20.68;43.03;98258.06;10565498;28;20101;-55
2023/01/23 11:35:38;;;;;;;4.90;3.95;;;;;;;20.71;43.14;98254.75;10565971;28;20047;-55
2023/01/23 11:40:58;;;;;;;4.10;3.67;;;;;;;20.74;43.28;98243.34;10588757;28;20059;-56
2023/01/23 11:46:36;;;;;;;6.32;4.00;;;;;;;20.74;43.28;98243.34;10587488;28;20058;-55
2023/01/23 11:52:08;;;;;;;5.63;3.95;;;;;;;20.80;43.28;98237.84;10587603;28;20564;-56
2023/01/23 11:57:46;;;;;;;6.10;4.15;;;;;;;20.81;43.50;98245.66;10588044;28;20043;-55
2023/01/23 12:03:14;;;;;;;7.13;4.38;;;;;;;-146.19;100.00;65364.44;10601409;28;20047;-55
2023/01/23 12:09:05;;;;;;;6.25;4.30;;;;;;;-146.19;100.00;65364.44;10601180;28;20051;-55
2023/01/23 12:14:53;;;;;;;7.32;4.13;;;;;;;-146.19;100.00;65364.44;10570848;28;20250;-55
2023/01/23 12:20:32;;;;;;;6.35;4.00;;;;;;;-146.19;100.00;65364.44;10600882;28;20044;-55
2023/01/23 12:26:03;;;;;;;8.45;4.45;;;;;;;-146.19;100.00;65364.44;10586726;28;20059;-55
2023/01/23 12:31:28;;;;;;;6.15;4.55;;;;;;;-146.19;100.00;65364.44;10571433;28;20052;-55
2023/01/23 12:36:51;;;;;;;7.18;4.25;;;;;;;-146.19;100.00;65364.44;10586502;28;20052;-55
2023/01/23 12:42:22;;;;;;;9.15;4.57;;;;;;;-146.19;100.00;65364.44;10586368;28;20074;-55
2023/01/23 12:47:49;;;;;;;7.35;4.25;;;;;;;-146.19;100.00;65364.44;10569390;28;20052;-55
2023/01/23 12:53:23;;;;;;;7.03;4.35;;;;;;;-146.19;100.00;65364.44;10570614;28;20097;-55
2023/01/23 12:58:55;;;;;;;5.13;3.33;;;;;;;-146.19;100.00;65364.44;10585403;28;20052;-55
2023/01/23 13:04:19;;;;;;;9.27;4.80;;;;;;;-146.19;100.00;65364.44;10570057;28;20059;-56
2023/01/23 13:09:45;;;;;;;9.10;4.55;;;;;;;-146.19;100.00;65364.44;10583590;28;20038;-55
2023/01/23 13:15:23;;;;;;;7.88;5.10;;;;;;;-146.19;100.00;65364.44;10584917;28;20051;-55
2023/01/23 13:26:36;;;;;;;6.22;4.43;;;;;;;-146.19;100.00;65364.44;10584498;28;20430;-55
2023/01/23 13:32:24;;;;;;;5.57;4.32;;;;;;;-146.19;100.00;65364.44;10597895;28;20051;-55
2023/01/23 13:37:49;;;;;;;6.00;4.30;;;;;;;20.81;43.50;98245.66;10584027;28;20044;-55
2023/01/23 13:43:41;;;;;;;6.95;4.28;;;;;;;20.76;44.29;98248.47;10583712;28;20093;-55
2023/01/23 14:06:59;;;;;;;6.00;3.95;;;;;;;20.69;44.42;98240.72;10569621;28;20435;-55
2023/01/23 14:12:27;;;;;;;5.68;4.30;;;;;;;20.68;44.60;98243.69;10582624;28;20062;-55
2023/01/23 14:17:47;;;;;;;5.30;3.78;;;;;;;20.68;44.70;98243.69;10582032;28;20055;-55
2023/01/23 14:23:19;;;;;;;4.85;3.97;;;;;;;20.66;44.45;98249.44;10581763;28;20499;-55
2023/01/23 14:28:39;;;;;;;5.60;4.05;;;;;;;20.64;44.65;98240.81;10566806;28;20055;-55
2023/01/23 14:34:04;;;;;;;5.45;3.90;;;;;;;20.62;44.60;98248.44;10580254;28;20093;-55
2023/01/23 14:39:26;;;;;;;4.35;3.42;;;;;;;20.61;44.61;98257.63;10581828;28;20057;-55
2023/01/23 14:44:46;;;;;;;5.93;4.20;;;;;;;20.62;44.21;98261.13;10593942;28;20376;-55
2023/01/23 14:50:15;;;;;;;5.05;3.70;;;;;;;20.59;44.00;98269.84;10595082;28;20092;-55
2023/01/23 14:55:36;;;;;;;5.30;3.75;;;;;;;20.56;44.09;98276.63;10581493;28;20113;-56
2023/01/23 15:00:56;;;;;;;4.72;3.70;;;;;;;20.53;44.24;98272.63;10565943;28;20051;-55
2023/01/23 15:06:20;;;;;;;5.13;3.70;;;;;;;20.52;44.16;98272.91;10580585;28;20047;-55
2023/01/23 15:11:40;;;;;;;5.57;3.95;;;;;;;20.51;44.26;98274.00;10584168;28;20052;-55
2023/01/23 15:17:01;;;;;;;5.18;4.05;;;;;;;-146.19;100.00;65364.44;10589753;28;20047;-55
2023/01/23 15:22:29;;;;;;;4.85;3.80;;;;;;;-146.19;100.00;65364.44;10587936;28;20102;-55
2023/01/23 15:27:48;;;;;;;5.10;4.13;;;;;;;-146.19;100.00;65364.44;10589123;28;20047;-55
2023/01/23 15:33:28;;;;;;;5.47;3.80;;;;;;;-146.19;100.00;65364.44;10573877;28;20051;-55
2023/01/23 15:38:48;;;;;;;4.57;3.63;;;;;;;-146.19;100.00;65364.44;10602423;28;20040;-55
2023/01/23 15:44:13;;;;;;;5.72;3.90;;;;;;;-146.19;100.00;65364.44;10602262;28;20043;-55
2023/01/23 15:49:34;;;;;;;3.78;3.38;;;;;;;-146.19;100.00;65364.44;10588695;28;20063;-55
2023/01/23 15:54:57;;;;;;;4.60;3.78;;;;;;;-146.19;100.00;65364.44;10609197;27;20039;-55
2023/01/23 16:00:20;;;;;;;3.78;3.40;;;;;;;20.35;44.20;98274.25;10629896;27;20062;-55
2023/01/23 16:05:40;;;;;;;3.90;3.58;;;;;;;-146.19;100.00;65364.44;10603114;27;20036;-56
2023/01/23 16:10:59;;;;;;;3.88;3.47;;;;;;;-146.19;100.00;65364.44;10587597;28;20058;-55
2023/01/23 16:16:19;;;;;;;5.03;4.10;;;;;;;-146.19;100.00;65364.44;10591616;27;20457;-57
2023/01/23 16:21:41;;;;;;;4.07;3.53;;;;;;;-146.19;100.00;65364.44;10600316;27;20044;-57
2023/01/23 16:27:01;;;;;;;5.40;3.65;;;;;;;-146.19;100.00;65364.44;10604508;27;20043;-56
2023/01/23 16:32:21;;;;;;;4.22;3.30;;;;;;;-146.19;100.00;65364.44;10606323;27;20048;-56
2023/01/23 16:37:43;;;;;;;5.22;3.67;;;;;;;20.24;45.10;98288.22;10602696;27;20047;-57
2023/01/23 16:43:02;;;;;;;5.68;3.45;;;;;;;20.22;45.12;98295.81;10612790;27;20062;-58
2023/01/23 16:48:23;;;;;;;4.70;3.85;;;;;;;20.20;45.47;98296.09;10609639;27;20542;-55
2023/01/23 16:53:49;;;;;;;3.58;3.28;;;;;;;20.19;45.33;98296.41;10599360;28;20044;-55
2023/01/23 16:59:19;;;;;;;4.35;3.55;;;;;;;20.17;45.38;98298.59;10585473;28;20056;-56
2023/01/23 17:04:38;;;;;;;4.07;3.35;;;;;;;20.15;45.52;98290.78;10585222;28;20143;-57
2023/01/23 17:09:58;;;;;;;4.00;2.88;;;;;;;20.13;45.77;98295.66;10585251;28;20051;-57
2023/01/23 17:15:23;;;;;;;4.93;3.40;;;;;;;20.13;45.72;98301.06;10595532;27;20127;-55
2023/01/23 17:20:42;;;;;;;4.07;3.40;;;;;;;20.10;45.81;98299.75;10603613;27;20044;-56
2023/01/23 17:26:02;;;;;;;4.40;3.50;;;;;;;20.11;46.08;98311.38;10584515;28;20047;-56
2023/01/23 17:31:24;;;;;;;3.42;3.08;;;;;;;20.10;46.34;98312.50;10599724;27;20059;-55
2023/01/23 17:36:44;;;;;;;4.57;3.40;;;;;;;20.08;45.92;98328.22;10626553;27;20084;-55
2023/01/23 17:42:04;;;;;;;4.75;3.30;;;;;;;20.06;45.91;98333.91;10621230;27;20036;-56
2023/01/23 17:47:24;;;;;;;4.28;3.60;;;;;;;20.03;45.89;98342.63;10588475;28;20518;-55
2023/01/23 17:52:44;;;;;;;4.60;3.50;;;;;;;20.02;45.96;98340.19;10582801;28;20052;-56
2023/01/23 17:58:03;;;;;;;3.97;3.35;;;;;;;20.01;45.96;98338.56;10583148;28;20051;-55
2023/01/23 18:03:23;;;;;;;5.25;3.35;;;;;;;19.99;46.08;98346.16;10582525;28;20488;-56
2023/01/23 18:08:43;;;;;;;3.10;2.80;;;;;;;19.97;46.11;98351.88;10586335;27;20085;-54
2023/01/23 18:14:14;;;;;;;5.05;3.35;;;;;;;19.96;46.31;98352.97;10584912;27;20084;-54
2023/01/23 18:19:33;;;;;;;4.88;3.70;;;;;;;19.94;46.52;98355.16;10569402;28;20055;-56
2023/01/23 18:24:54;;;;;;;4.50;2.95;;;;;;;19.94;46.52;98355.16;10582184;28;20050;-55
2023/01/23 18:30:20;;;;;;;5.32;3.42;;;;;;;19.91;46.72;98356.53;10578635;27;20061;-57
2023/01/23 18:35:55;;;;;;;4.28;3.70;;;;;;;19.90;46.87;98359.53;10601232;27;20048;-55
2023/01/23 18:41:24;;;;;;;4.40;3.28;;;;;;;19.89;47.10;98366.03;10601327;27;20128;-57
2023/01/23 18:46:43;;;;;;;5.30;3.25;;;;;;;19.86;47.17;98364.72;10564679;28;20059;-55
2023/01/23 18:52:23;;;;;;;3.42;2.95;;;;;;;19.84;47.57;98375.00;10581720;28;20052;-56
2023/01/23 18:57:50;;;;;;;3.70;3.15;;;;;;;-146.19;100.00;65364.44;10581223;28;20430;-56
2023/01/23 19:03:13;;;;;;;3.45;3.00;;;;;;;19.84;47.57;98375.00;10581221;28;20063;-55
2023/01/23 19:08:34;;;;;;;4.80;3.50;;;;;;;19.80;47.57;98381.25;10581104;28;20184;-55
2023/01/23 19:14:04;;;;;;;4.20;3.13;;;;;;;19.78;47.91;98378.88;10580803;28;20389;-56
2023/01/23 19:19:54;;;;;;;4.13;3.30;;;;;;;19.76;47.80;98383.75;10580892;28;20051;-56
2023/01/23 19:25:17;;;;;;;6.05;3.28;;;;;;;19.76;47.75;98383.75;10597042;27;20036;-54
2023/01/23 19:30:37;;;;;;;4.72;3.00;;;;;;;19.75;47.88;98382.13;10590852;28;20495;-54
2023/01/23 19:35:58;;;;;;;3.72;2.92;;;;;;;19.73;47.94;98385.13;10580699;28;20067;-54
2023/01/23 19:41:21;;;;;;;4.28;2.67;;;;;;;19.73;48.01;98384.31;10579968;28;20058;-57
2023/01/23 19:46:41;;;;;;;4.57;2.95;;;;;;;19.71;48.00;98389.19;10564697;28;20469;-57
2023/01/23 19:52:01;;;;;;;4.57;2.88;;;;;;;19.69;48.01;98391.38;10581040;28;20051;-54
2023/01/23 19:57:20;;;;;;;3.65;3.05;;;;;;;19.68;48.27;98403.25;10581038;28;20059;-56
2023/01/23 20:02:40;;;;;;;5.55;3.00;;;;;;;19.67;48.18;98396.25;10601620;28;20043;-55
2023/01/23 20:08:00;;;;;;;5.10;2.80;;;;;;;19.65;48.22;98393.84;10600990;28;20040;-56
2023/01/23 20:13:19;;;;;;;3.90;2.67;;;;;;;19.63;48.41;98396.00;10601022;28;20036;-54
2023/01/23 20:18:38;;;;;;;4.57;3.20;;;;;;;19.63;48.57;98392.50;10586685;28;20085;-56
2023/01/23 20:23:58;;;;;;;4.00;3.33;;;;;;;19.61;48.42;98403.59;10594482;27;20047;-57
2023/01/23 20:29:17;;;;;;;3.78;3.05;;;;;;;19.61;48.23;98394.69;10606734;27;20062;-56
2023/01/23 20:34:36;;;;;;;3.63;3.22;;;;;;;19.60;48.56;98401.19;10613884;27;20072;-53
2023/01/23 20:39:56;;;;;;;3.65;3.00;;;;;;;19.59;48.18;98407.69;10628939;27;20054;-55
2023/01/23 20:45:16;;;;;;;3.47;2.90;;;;;;;19.58;48.09;98400.66;10636140;27;20057;-55
2023/01/23 20:50:39;;;;;;;4.65;3.30;;;;;;;19.56;48.16;98407.19;10642370;27;20126;-56
2023/01/23 20:56:00;;;;;;;5.28;3.33;;;;;;;19.55;48.04;98412.88;10628312;27;20418;-56
2023/01/23 21:01:21;;;;;;;4.97;3.35;;;;;;;19.55;48.54;98413.66;10628035;27;20452;-55
2023/01/23 21:06:41;;;;;;;4.47;3.33;;;;;;;19.55;48.67;98424.47;10621217;27;20056;-56
2023/01/23 21:12:00;;;;;;;5.15;3.47;;;;;;;19.55;48.60;98426.38;10618854;27;20433;-55
2023/01/23 21:17:20;;;;;;;3.80;3.22;;;;;;;19.55;48.57;98429.88;10584896;27;20039;-54
2023/01/23 21:22:39;;;;;;;7.28;3.15;;;;;;;19.53;48.74;98429.34;10625366;27;20039;-55
2023/01/23 21:27:59;;;;;;;4.47;3.17;;;;;;;19.54;48.80;98433.69;10627144;27;20051;-56
2023/01/23 21:33:18;;;;;;;5.13;3.15;;;;;;;19.53;48.67;98434.75;10626939;27;20407;-56
2023/01/23 21:38:38;;;;;;;5.30;3.33;;;;;;;19.51;48.75;98431.53;10625050;27;20391;-56
2023/01/23 21:43:58;;;;;;;4.05;3.22;;;;;;;19.51;48.97;98425.34;10615938;27;20043;-55
2023/01/23 21:49:17;;;;;;;5.72;3.25;;;;;;;19.50;48.88;98426.41;10601986;27;20460;-55
2023/01/23 21:54:40;;;;;;;6.10;2.97;;;;;;;19.48;48.85;98424.03;10599026;27;20047;-54
2023/01/23 22:05:37;;;;;;;4.05;3.25;;;;;;;19.44;48.64;98412.13;10617289;27;20047;-55
2023/01/23 22:10:57;;;;;;;4.88;3.28;;;;;;;19.42;48.82;98408.91;10625406;27;20055;-55
2023/01/23 22:16:16;;;;;;;5.15;3.30;;;;;;;19.43;48.88;98420.56;10625282;27;20047;-55
2023/01/23 22:21:38;;;;;;;3.67;2.88;;;;;;;19.41;48.91;98418.13;10624282;27;20111;-55
2023/01/23 22:26:58;;;;;;;3.75;2.90;;;;;;;19.39;48.91;98420.31;10624862;27;20050;-55
2023/01/23 22:32:18;;;;;;;5.78;2.90;;;;;;;19.39;48.94;98414.09;10638494;27;20036;-55
2023/01/23 22:37:40;;;;;;;4.30;3.10;;;;;;;19.36;48.76;98410.06;10623849;27;20043;-53
2023/01/23 22:43:00;;;;;;;3.85;2.88;;;;;;;19.35;48.95;98411.16;10624419;27;20396;-55
2023/01/23 22:48:19;;;;;;;4.63;3.00;;;;;;;19.34;48.97;98417.63;10626543;27;20043;-55
2023/01/23 22:53:39;;;;;;;4.43;2.63;;;;;;;19.33;49.03;98418.75;10624086;27;20054;-55
2023/01/23 22:59:00;;;;;;;3.33;2.67;;;;;;;19.32;48.97;98412.50;10637732;27;20055;-55
2023/01/23 23:04:19;;;;;;;3.13;2.83;;;;;;;19.31;49.11;98418.22;10623757;28;20043;-55
2023/01/23 23:09:38;;;;;;;4.25;2.90;;;;;;;19.29;49.08;98409.59;10613924;27;20097;-55
2023/01/23 23:14:58;;;;;;;3.13;2.83;;;;;;;19.28;49.04;98418.78;10581041;28;20047;-54
2023/01/23 23:20:17;;;;;;;3.30;2.55;;;;;;;19.27;49.04;98414.47;10594573;28;20448;-55
2023/01/23 23:25:37;;;;;;;4.53;3.00;;;;;;;19.26;48.84;98410.13;10565744;28;20051;-54
2023/01/23 23:30:57;;;;;;;4.35;3.30;;;;;;;19.24;48.93;98415.81;10594392;28;20042;-55
2023/01/23 23:36:16;;;;;;;3.10;2.75;;;;;;;19.22;48.89;98414.50;10589258;28;20105;-55
2023/01/23 23:41:36;;;;;;;3.20;2.45;;;;;;;19.21;48.85;98408.31;10589067;28;20051;-55
2023/01/23 23:46:56;;;;;;;3.42;2.78;;;;;;;19.20;49.01;98409.38;10587903;28;20060;-55
2023/01/23 23:52:15;;;;;;;5.82;2.83;;;;;;;19.19;49.00;98415.88;10588355;28;20056;-55
2023/01/23 23:57:34;;;;;;;2.92;2.63;;;;;;;19.17;49.04;98418.06;10601802;28;20047;-55
